createdAt,value
2022-10-05T00:00:28.887Z,101206.09
2022-10-05T00:02:58.197Z,101182.81
2022-10-05T00:05:32.676Z,101210.88
2022-10-05T00:08:14.196Z,101215.03
2022-10-05T00:10:46.154Z,101204.91
2022-10-05T00:13:20.887Z,101202.38
2022-10-05T00:15:49.370Z,101190.53
2022-10-05T00:18:22.717Z,101194.81
2022-10-05T00:20:51.127Z,101195.13
2022-10-05T00:23:30.640Z,101184.09
2022-10-05T00:26:07.556Z,101176.78
2022-10-05T00:28:35.412Z,101181.25
2022-10-05T00:31:15.964Z,101181.56
2022-10-05T00:33:45.167Z,101183.44
2022-10-05T00:36:13.308Z,101187.34
2022-10-05T00:38:44.331Z,101192.13
2022-10-05T00:41:18.959Z,101188.88
2022-10-05T00:44:06.394Z,101188.72
2022-10-05T00:46:51.179Z,101194.09
2022-10-05T00:49:37.043Z,101192.94
2022-10-05T00:52:13.507Z,101188.47
2022-10-05T00:55:05.615Z,101192.34
2022-10-05T00:57:46.113Z,101167.69
2022-10-05T01:00:18.629Z,101191.16
2022-10-05T01:03:03.034Z,101189.69
2022-10-05T01:05:45.183Z,101188.91
2022-10-05T01:08:27.563Z,101187.88
2022-10-05T01:11:12.319Z,101185.81
2022-10-05T01:13:51.489Z,101182.84
2022-10-05T01:16:29.046Z,101176.63
2022-10-05T01:19:06.866Z,101175.59
2022-10-05T01:21:48.663Z,101182.53
2022-10-05T01:24:53.098Z,101171.97
2022-10-05T01:27:43.551Z,101163.97
2022-10-05T01:30:14.195Z,101169.91
2022-10-05T01:32:48.408Z,101164.88
2022-10-05T01:35:30.602Z,101168.25
2022-10-05T01:38:20.832Z,101159.34
2022-10-05T01:40:59.933Z,101155.59
2022-10-05T01:43:44.464Z,101155.88
2022-10-05T01:46:30.066Z,101130.06
2022-10-05T01:49:18.946Z,101139.63
2022-10-05T01:51:57.070Z,101136.34
2022-10-05T01:54:36.356Z,101139.03
2022-10-05T01:57:14.303Z,101139.03
2022-10-05T02:00:04.474Z,101145.13
2022-10-05T02:02:47.007Z,101144.22
2022-10-05T02:05:22.125Z,101131.47
2022-10-05T02:07:54.925Z,101135.00
2022-10-05T02:10:27.014Z,101124.91
2022-10-05T02:13:04.368Z,101126.53
2022-10-05T02:15:42.755Z,101127.25
2022-10-05T02:18:15.491Z,101123.69
2022-10-05T02:20:45.608Z,101114.09
2022-10-05T02:23:20.964Z,101106.34
2022-10-05T02:25:52.812Z,101099.53
2022-10-05T02:28:26.932Z,101085.91
2022-10-05T02:31:02.322Z,101103.00
2022-10-05T02:33:32.981Z,101106.53
2022-10-05T02:36:15.920Z,101100.75
2022-10-05T02:39:01.166Z,101098.69
2022-10-05T02:41:42.166Z,101113.88
2022-10-05T02:44:22.012Z,101116.22
2022-10-05T02:47:01.333Z,101094.09
2022-10-05T02:49:46.025Z,101095.13
2022-10-05T02:52:22.590Z,101103.63
2022-10-05T02:55:00.642Z,101094.88
2022-10-05T02:57:33.074Z,101109.13
2022-10-05T03:00:14.422Z,101092.22
2022-10-05T03:02:49.995Z,101092.81
2022-10-05T03:05:23.183Z,101090.59
2022-10-05T03:08:02.918Z,101081.88
2022-10-05T03:10:44.404Z,101091.53
2022-10-05T03:13:22.517Z,101089.94
2022-10-05T03:16:10.555Z,101095.59
2022-10-05T03:18:53.956Z,101105.72
2022-10-05T03:21:39.718Z,101101.25
2022-10-05T03:24:31.561Z,101105.41
2022-10-05T03:27:08.662Z,101090.13
2022-10-05T03:29:41.745Z,101093.66
2022-10-05T03:32:22.545Z,101082.81
2022-10-05T03:34:56.810Z,101074.50
2022-10-05T03:37:30.391Z,101071.22
2022-10-05T03:40:08.114Z,101065.31
2022-10-05T03:42:49.199Z,101068.09
2022-10-05T03:45:28.716Z,101060.53
2022-10-05T03:48:06.454Z,101053.84
2022-10-05T03:50:46.540Z,101056.97
2022-10-05T03:53:21.752Z,101063.63
2022-10-05T03:55:55.415Z,101055.03
2022-10-05T03:58:29.058Z,101059.03
2022-10-05T04:01:03.452Z,101057.75
2022-10-05T04:03:35.555Z,101041.16
2022-10-05T04:06:11.189Z,101042.34
2022-10-05T04:08:48.068Z,101041.00
2022-10-05T04:11:26.561Z,101009.25
2022-10-05T04:14:00.458Z,101025.38
2022-10-05T04:16:33.384Z,101009.97
2022-10-05T04:19:15.515Z,101018.25
2022-10-05T04:21:52.723Z,101025.81
2022-10-05T04:24:36.410Z,101017.63
2022-10-05T04:27:11.593Z,101012.16
2022-10-05T04:29:43.132Z,101007.69
2022-10-05T04:32:29.659Z,101004.25
2022-10-05T04:35:11.404Z,101013.13
2022-10-05T04:37:50.982Z,101012.25
2022-10-05T04:40:37.725Z,101002.00
2022-10-05T04:43:14.098Z,101006.91
2022-10-05T04:46:15.992Z,101010.66
2022-10-05T04:49:21.851Z,101008.16
2022-10-05T04:51:59.983Z,101006.44
2022-10-05T04:54:42.943Z,101010.19
2022-10-05T04:57:15.788Z,101013.75
2022-10-05T05:00:04.805Z,101008.16
2022-10-05T05:02:47.579Z,101013.81
2022-10-05T05:06:05.111Z,101022.41
2022-10-05T05:08:48.138Z,101005.53
2022-10-05T05:11:29.967Z,101005.84
2022-10-05T05:14:26.644Z,101008.22
2022-10-05T05:17:13.017Z,101016.25
2022-10-05T05:19:51.898Z,101015.06
2022-10-05T05:22:29.019Z,101023.81
2022-10-05T05:25:18.501Z,101026.47
2022-10-05T05:27:53.541Z,101031.53
2022-10-05T05:30:25.932Z,101033.31
2022-10-05T05:33:05.742Z,101034.03
2022-10-05T05:36:04.846Z,101030.22
2022-10-05T05:38:36.273Z,101037.91
2022-10-05T05:41:10.722Z,101039.41
2022-10-05T05:44:05.752Z,101040.28
2022-10-05T05:47:02.543Z,101037.59
2022-10-05T05:49:50.720Z,101039.69
2022-10-05T05:52:23.099Z,101019.81
2022-10-05T05:54:57.826Z,101035.22
2022-10-05T05:57:30.924Z,101028.81
2022-10-05T06:00:08.101Z,101037.09
2022-10-05T06:02:55.398Z,101039.94
2022-10-05T06:05:32.528Z,101028.34
2022-10-05T06:08:24.621Z,101034.44
2022-10-05T06:11:00.257Z,101032.03
2022-10-05T06:13:34.203Z,101025.34
2022-10-05T06:16:18.597Z,101028.03
2022-10-05T06:18:52.212Z,101014.66
2022-10-05T06:21:29.741Z,101020.00
2022-10-05T06:24:04.515Z,101024.44
2022-10-05T06:27:27.538Z,101022.81
2022-10-05T06:30:09.779Z,101033.03
2022-10-05T06:33:06.103Z,101033.16
2022-10-05T06:35:49.324Z,101041.63
2022-10-05T06:38:47.770Z,101049.34
2022-10-05T06:41:25.834Z,101042.81
2022-10-05T06:43:59.729Z,101048.28
2022-10-05T06:46:57.690Z,101050.94
2022-10-05T06:49:52.169Z,101040.03
2022-10-05T06:53:13.392Z,101046.19
2022-10-05T06:55:50.242Z,101041.13
2022-10-05T06:58:32.549Z,101043.09
2022-10-05T07:01:06.574Z,101046.66
2022-10-05T07:03:43.661Z,101046.09
2022-10-05T07:06:17.631Z,101038.44
2022-10-05T07:09:12.117Z,101046.25
2022-10-05T07:12:04.602Z,101047.81
2022-10-05T07:14:55.252Z,101028.13
2022-10-05T07:17:37.012Z,101042.78
2022-10-05T07:20:16.954Z,101042.84
2022-10-05T07:23:20.645Z,101049.72
2022-10-05T07:25:59.590Z,101034.00
2022-10-05T07:28:43.091Z,101037.06
2022-10-05T07:31:19.556Z,101001.84
2022-10-05T07:33:58.905Z,101029.34
2022-10-05T07:36:59.713Z,101029.47
2022-10-05T07:39:58.983Z,101027.69
2022-10-05T07:42:46.031Z,101029.72
2022-10-05T07:45:28.611Z,101024.53
2022-10-05T07:48:06.832Z,101026.09
2022-10-05T07:50:45.109Z,101020.06
2022-10-05T07:53:19.348Z,101019.38
2022-10-05T07:55:54.454Z,101020.66
2022-10-05T07:58:29.672Z,101012.94
2022-10-05T08:01:08.920Z,101030.53
2022-10-05T08:03:52.182Z,101023.06
2022-10-05T08:06:34.844Z,101025.44
2022-10-05T08:09:11.654Z,101024.06
2022-10-05T08:11:48.397Z,101034.75
2022-10-05T08:14:27.177Z,101029.97
2022-10-05T08:16:59.083Z,101043.38
2022-10-05T08:19:41.620Z,101037.94
2022-10-05T08:22:13.731Z,101032.69
2022-10-05T08:24:48.796Z,101031.28
2022-10-05T08:27:21.784Z,101027.81
2022-10-05T08:29:59.789Z,101036.13
2022-10-05T08:32:32.373Z,101035.69
2022-10-05T08:35:21.563Z,101042.06
2022-10-05T08:37:50.942Z,101039.38
2022-10-05T08:40:51.613Z,101031.06
2022-10-05T08:43:45.228Z,101028.00
2022-10-05T08:46:36.251Z,101031.06
2022-10-05T08:49:30.628Z,101035.72
2022-10-05T08:52:32.357Z,101041.91
2022-10-05T08:55:30.162Z,101041.22
2022-10-05T09:01:10.918Z,101041.25
2022-10-05T09:04:22.072Z,101044.44
2022-10-05T09:07:28.363Z,101039.25
2022-10-05T09:10:29.617Z,101036.78
2022-10-05T09:13:25.905Z,101044.03
2022-10-05T09:16:14.673Z,101023.66
2022-10-05T09:19:17.082Z,101051.38
2022-10-05T09:21:57.455Z,101043.94
2022-10-05T09:24:29.593Z,101039.16
2022-10-05T09:27:11.230Z,101047.69
2022-10-05T09:30:18.716Z,101044.66
2022-10-05T09:33:26.965Z,101047.53
2022-10-05T09:36:27.632Z,101043.81
2022-10-05T09:39:37.799Z,101046.00
2022-10-05T09:42:31.311Z,101041.69
2022-10-05T09:45:37.088Z,101045.56
2022-10-05T09:48:55.060Z,101053.19
2022-10-05T09:51:54.468Z,101041.38
2022-10-05T09:55:14.374Z,101042.28
2022-10-05T09:58:40.891Z,101039.38
2022-10-05T10:01:34.470Z,101036.06
2022-10-05T10:04:25.729Z,101035.19
2022-10-05T10:07:33.868Z,101036.78
2022-10-05T10:10:55.467Z,101026.09
2022-10-05T10:13:53.705Z,101025.31
2022-10-05T10:17:00.371Z,101026.22
2022-10-05T10:20:00.483Z,101030.22
2022-10-05T10:23:05.700Z,101031.56
2022-10-05T10:25:48.386Z,101019.72
2022-10-05T10:28:42.373Z,101009.63
2022-10-05T10:31:27.302Z,101025.34
2022-10-05T10:34:14.508Z,101019.63
2022-10-05T10:37:24.480Z,101023.38
2022-10-05T10:40:27.773Z,101023.34
2022-10-05T10:43:26.198Z,101023.34
2022-10-05T10:46:07.542Z,101011.50
2022-10-05T10:49:01.736Z,101021.34
2022-10-05T10:51:53.843Z,101017.13
2022-10-05T10:54:57.270Z,101006.53
2022-10-05T10:57:35.500Z,101002.53
2022-10-05T11:00:22.722Z,100999.72
2022-10-05T11:03:26.256Z,100986.66
2022-10-05T11:06:19.056Z,100982.25
2022-10-05T11:09:02.412Z,100986.91
2022-10-05T11:11:59.499Z,100987.72
2022-10-05T11:15:02.345Z,100983.72
2022-10-05T11:17:46.882Z,100972.88
2022-10-05T11:20:44.632Z,100972.88
2022-10-05T11:23:36.508Z,100970.56
2022-10-05T11:26:34.507Z,100952.38
2022-10-05T11:29:45.526Z,100953.16
2022-10-05T11:32:35.104Z,100953.25
2022-10-05T11:35:34.134Z,100947.63
2022-10-05T11:38:34.126Z,100947.06
2022-10-05T11:41:41.215Z,100929.06
2022-10-05T11:44:39.429Z,100932.84
2022-10-05T11:47:16.697Z,100922.09
2022-10-05T11:49:49.628Z,100910.13
2022-10-05T11:52:27.706Z,100914.47
2022-10-05T11:55:15.447Z,100909.75
2022-10-05T11:57:54.303Z,100908.19
2022-10-05T12:00:24.074Z,100913.00
2022-10-05T12:03:16.791Z,100908.53
2022-10-05T12:05:58.337Z,100905.59
2022-10-05T12:08:38.154Z,100899.66
2022-10-05T12:11:26.842Z,100895.22
2022-10-05T12:14:05.729Z,100892.59
2022-10-05T12:16:41.568Z,100889.09
2022-10-05T12:19:15.806Z,100889.97
2022-10-05T12:21:52.577Z,100886.63
2022-10-05T12:24:28.009Z,100879.06
2022-10-05T12:27:02.407Z,100876.72
2022-10-05T12:29:39.475Z,100855.22
2022-10-05T12:32:14.429Z,100861.66
2022-10-05T12:35:03.209Z,100860.91
2022-10-05T12:37:56.144Z,100866.19
2022-10-05T12:40:46.166Z,100836.97
2022-10-05T12:43:24.013Z,100852.06
2022-10-05T12:46:04.755Z,100846.38
2022-10-05T12:48:52.617Z,100845.91
2022-10-05T12:51:26.348Z,100846.22
2022-10-05T12:54:01.097Z,100842.88
2022-10-05T12:56:43.269Z,100842.88
2022-10-05T12:59:30.753Z,100841.13
2022-10-05T13:02:08.773Z,100829.03
2022-10-05T13:04:46.837Z,100832.06
2022-10-05T13:07:39.266Z,100835.13
2022-10-05T13:10:28.123Z,100837.25
2022-10-05T13:13:07.012Z,100833.47
2022-10-05T13:15:42.647Z,100836.50
2022-10-05T13:18:23.428Z,100824.75
2022-10-05T13:21:02.775Z,100815.03
2022-10-05T13:23:41.865Z,100812.78
2022-10-05T13:26:13.445Z,100808.19
2022-10-05T13:28:50.422Z,100792.19
2022-10-05T13:31:24.784Z,100809.06
2022-10-05T13:34:02.589Z,100803.19
2022-10-05T13:36:42.126Z,100805.72
2022-10-05T13:39:22.407Z,100798.47
2022-10-05T13:41:55.530Z,100803.38
2022-10-05T13:44:31.877Z,100801.59
2022-10-05T13:47:02.970Z,100803.25
2022-10-05T13:49:40.170Z,100810.78
2022-10-05T13:52:22.744Z,100802.47
2022-10-05T13:54:59.637Z,100794.03
2022-10-05T13:57:45.957Z,100804.06
2022-10-05T14:00:24.156Z,100798.22
2022-10-05T14:02:57.304Z,100794.19
2022-10-05T14:05:28.797Z,100786.00
2022-10-05T14:07:58.440Z,100780.00
2022-10-05T14:10:40.721Z,100781.00
2022-10-05T14:13:26.815Z,100767.13
2022-10-05T14:16:05.506Z,100777.56
2022-10-05T14:18:37.485Z,100777.66
2022-10-05T14:21:22.135Z,100775.00
2022-10-05T14:23:52.644Z,100779.53
2022-10-05T14:26:33.729Z,100771.97
2022-10-05T14:29:18.238Z,100766.19
2022-10-05T14:31:52.272Z,100760.50
2022-10-05T14:34:37.050Z,100767.56
2022-10-05T14:37:20.379Z,100761.78
2022-10-05T14:39:50.038Z,100746.69
2022-10-05T14:42:20.575Z,100758.94
2022-10-05T14:45:13.994Z,100745.22
2022-10-05T14:47:50.178Z,100748.84
2022-10-05T14:50:21.364Z,100747.84
2022-10-05T14:53:10.288Z,100744.22
2022-10-05T14:56:13.919Z,100739.03
2022-10-05T14:58:59.527Z,100742.25
2022-10-05T15:01:31.019Z,100738.72
2022-10-05T15:04:17.864Z,100735.88
2022-10-05T15:06:55.447Z,100739.69
2022-10-05T15:09:51.081Z,100732.34
2022-10-05T15:12:25.944Z,100735.56
2022-10-05T15:15:06.959Z,100731.38
2022-10-05T15:17:44.507Z,100735.00
2022-10-05T15:20:21.476Z,100738.09
2022-10-05T15:22:55.240Z,100726.28
2022-10-05T15:25:30.667Z,100732.47
2022-10-05T15:28:16.521Z,100724.00
2022-10-05T15:30:53.583Z,100719.09
2022-10-05T15:33:30.201Z,100729.75
2022-10-05T15:36:15.161Z,100725.94
2022-10-05T15:38:59.457Z,100713.59
2022-10-05T15:41:52.863Z,100688.50
2022-10-05T15:44:36.751Z,100701.72
2022-10-05T15:47:07.856Z,100699.09
2022-10-05T15:49:45.425Z,100693.19
2022-10-05T15:52:24.449Z,100693.88
2022-10-05T15:55:26.538Z,100696.78
2022-10-05T15:58:09.031Z,100700.78
2022-10-05T16:00:48.712Z,100703.16
2022-10-05T16:03:26.759Z,100701.94
2022-10-05T16:06:17.645Z,100704.88
2022-10-05T16:09:08.259Z,100700.94
2022-10-05T16:12:00.904Z,100699.34
2022-10-05T16:14:45.839Z,100699.03
2022-10-05T16:17:32.064Z,100695.72
2022-10-05T16:20:19.392Z,100692.19
2022-10-05T16:22:52.505Z,100690.22
2022-10-05T16:25:24.449Z,100677.84
2022-10-05T16:28:05.827Z,100678.53
2022-10-05T16:30:53.333Z,100679.22
2022-10-05T16:33:29.338Z,100690.38
2022-10-05T16:36:16.177Z,100686.63
2022-10-05T16:38:50.385Z,100691.41
2022-10-05T16:41:28.327Z,100685.00
2022-10-05T16:44:10.395Z,100695.84
2022-10-05T16:46:46.602Z,100697.00
2022-10-05T16:49:25.562Z,100695.66
2022-10-05T16:51:59.010Z,100697.22
2022-10-05T16:54:32.650Z,100695.13
2022-10-05T16:57:07.835Z,100687.16
2022-10-05T17:00:12.168Z,100685.53
2022-10-05T17:03:05.802Z,100693.25
2022-10-05T17:05:57.493Z,100701.56
2022-10-05T17:08:45.897Z,100711.59
2022-10-05T17:11:28.736Z,100709.84
2022-10-05T17:14:22.331Z,100706.56
2022-10-05T17:17:05.363Z,100733.81
2022-10-05T17:19:51.237Z,100718.22
2022-10-05T17:22:28.786Z,100731.53
2022-10-05T17:25:04.665Z,100744.09
2022-10-05T17:27:50.978Z,100740.16
2022-10-05T17:30:48.458Z,100740.78
2022-10-05T17:33:22.424Z,100746.53
2022-10-05T17:36:13.559Z,100748.09
2022-10-05T17:38:52.458Z,100758.50
2022-10-05T17:41:25.755Z,100753.59
2022-10-05T17:44:26.220Z,100756.94
2022-10-05T17:46:56.947Z,100761.13
2022-10-05T17:50:08.684Z,100769.31
2022-10-05T17:53:02.238Z,100763.44
2022-10-05T17:56:03.811Z,100761.78
2022-10-05T17:59:06.722Z,100762.03
2022-10-05T18:01:36.648Z,100766.22
2022-10-05T18:04:38.625Z,100777.38
2022-10-05T18:07:36.795Z,100768.53
2022-10-05T18:10:28.967Z,100781.56
2022-10-05T18:13:20.908Z,100783.00
2022-10-05T18:15:50.273Z,100779.28
2022-10-05T18:18:59.909Z,100785.00
2022-10-05T18:21:35.478Z,100783.78
2022-10-05T18:24:20.204Z,100782.66
2022-10-05T18:26:59.575Z,100786.59
2022-10-05T18:30:06.319Z,100796.78
2022-10-05T18:32:46.145Z,100791.38
2022-10-05T18:35:17.146Z,100791.03
2022-10-05T18:37:56.034Z,100789.03
2022-10-05T18:40:37.014Z,100796.44
2022-10-05T18:43:19.675Z,100795.53
2022-10-05T18:46:02.558Z,100799.41
2022-10-05T18:48:50.384Z,100802.94
2022-10-05T18:51:28.386Z,100799.63
2022-10-05T18:54:10.848Z,100801.50
2022-10-05T18:56:46.697Z,100796.22
2022-10-05T18:59:45.039Z,100805.19
2022-10-05T19:02:23.081Z,100811.59
2022-10-05T19:05:18.952Z,100808.09
2022-10-05T19:08:08.628Z,100824.03
2022-10-05T19:10:44.993Z,100820.34
2022-10-05T19:13:31.808Z,100830.31
2022-10-05T19:16:17.134Z,100817.94
2022-10-05T19:18:58.193Z,100825.88
2022-10-05T19:21:31.992Z,100833.22
2022-10-05T19:24:19.814Z,100839.50
2022-10-05T19:27:04.473Z,100844.03
2022-10-05T19:30:03.439Z,100842.69
2022-10-05T19:32:44.965Z,100854.41
2022-10-05T19:35:25.601Z,100847.34
2022-10-05T19:38:15.197Z,100856.19
2022-10-05T19:40:53.081Z,100863.13
2022-10-05T19:43:41.023Z,100854.66
2022-10-05T19:46:21.380Z,100859.59
2022-10-05T19:48:53.863Z,100869.22
2022-10-05T19:51:38.605Z,100864.47
2022-10-05T19:54:17.449Z,100867.78
2022-10-05T19:56:49.475Z,100872.75
2022-10-05T19:59:20.616Z,100871.22
2022-10-05T20:01:56.302Z,100862.16
2022-10-05T20:04:43.560Z,100869.22
2022-10-05T20:07:15.706Z,100882.03
2022-10-05T20:10:17.552Z,100892.56
2022-10-05T20:12:50.545Z,100884.56
2022-10-05T20:15:39.144Z,100876.50
2022-10-05T20:19:12.784Z,100870.53
2022-10-05T20:21:45.894Z,100879.50
2022-10-05T20:24:17.052Z,100880.72
2022-10-05T20:27:16.482Z,100889.66
2022-10-05T20:29:45.925Z,100899.72
2022-10-05T20:32:17.680Z,100907.59
2022-10-05T20:34:49.387Z,100905.50
2022-10-05T20:37:28.466Z,100892.22
2022-10-05T20:39:56.267Z,100904.72
2022-10-05T20:42:24.087Z,100911.66
2022-10-05T20:44:56.658Z,100887.59
2022-10-05T20:47:28.128Z,100906.69
2022-10-05T20:49:58.384Z,100911.91
2022-10-05T20:52:27.592Z,100907.66
2022-10-05T20:54:58.812Z,100912.75
2022-10-05T20:57:27.515Z,100932.50
2022-10-05T20:59:55.276Z,100933.50
2022-10-05T21:02:23.020Z,100936.25
2022-10-05T21:04:51.368Z,100938.00
2022-10-05T21:07:21.151Z,100935.56
2022-10-05T21:09:51.541Z,100933.38
2022-10-05T21:12:19.347Z,100932.91
2022-10-05T21:14:47.431Z,100938.56
2022-10-05T21:17:15.201Z,100931.25
2022-10-05T21:19:43.134Z,100929.50
2022-10-05T21:22:11.595Z,100931.34
2022-10-05T21:24:40.919Z,100921.19
2022-10-05T21:27:10.161Z,100930.47
2022-10-05T21:29:43.739Z,100935.22
2022-10-05T21:32:12.229Z,100946.28
2022-10-05T21:34:44.786Z,100934.47
2022-10-05T21:37:12.725Z,100937.00
2022-10-05T21:39:40.429Z,100936.44
2022-10-05T21:42:08.200Z,100941.75
2022-10-05T21:44:37.337Z,100936.78
2022-10-05T21:47:06.984Z,100937.13
2022-10-05T21:49:34.963Z,100942.44
2022-10-05T21:52:06.326Z,100943.44
2022-10-05T21:54:35.031Z,100949.41
2022-10-05T21:57:03.309Z,100953.72
2022-10-05T21:59:34.355Z,100957.03
2022-10-05T22:02:03.541Z,100951.72
2022-10-05T22:04:38.683Z,100917.97
2022-10-05T22:07:19.009Z,100948.50
2022-10-05T22:09:48.276Z,100967.41
2022-10-05T22:12:22.722Z,100974.28
2022-10-05T22:14:52.855Z,100959.59
2022-10-05T22:17:27.136Z,100967.22
2022-10-05T22:19:56.055Z,100965.34
2022-10-05T22:22:24.196Z,100973.75
2022-10-05T22:24:53.173Z,100978.72
2022-10-05T22:27:26.671Z,100967.53
2022-10-05T22:29:58.164Z,100972.53
2022-10-05T22:32:36.283Z,100977.63
2022-10-05T22:35:07.866Z,100982.59
2022-10-05T22:37:38.803Z,100978.94
2022-10-05T22:40:08.179Z,100985.69
2022-10-05T22:42:36.089Z,100986.34
2022-10-05T22:45:03.941Z,100994.66
2022-10-05T22:47:33.084Z,100991.75
2022-10-05T22:50:01.309Z,100989.31
2022-10-05T22:52:29.501Z,100994.41
2022-10-05T22:54:57.203Z,100996.84
2022-10-05T22:57:27.850Z,100987.22
2022-10-05T22:59:55.594Z,100999.38
2022-10-05T23:02:29.415Z,101009.44
2022-10-05T23:04:59.012Z,101018.72
2022-10-05T23:07:26.813Z,101023.59
2022-10-05T23:09:54.601Z,101023.34
2022-10-05T23:12:28.379Z,101018.28
2022-10-05T23:14:58.380Z,101035.31
2022-10-05T23:17:28.333Z,101029.81
2022-10-05T23:19:56.101Z,101039.53
2022-10-05T23:22:29.889Z,101029.03
2022-10-05T23:24:57.719Z,101028.75
2022-10-05T23:27:32.963Z,101010.59
2022-10-05T23:30:00.761Z,101033.59
2022-10-05T23:32:31.575Z,101049.09
2022-10-05T23:34:59.318Z,101039.91
2022-10-05T23:37:32.533Z,101041.69
2022-10-05T23:40:00.267Z,101043.34
2022-10-05T23:42:28.051Z,101045.34
2022-10-05T23:44:55.826Z,101065.06
2022-10-05T23:47:23.675Z,101057.06
2022-10-05T23:49:51.668Z,101069.69
2022-10-05T23:52:19.722Z,101068.47
2022-10-05T23:54:48.914Z,101069.78
2022-10-05T23:57:17.802Z,101062.34
2022-10-05T23:59:51.161Z,101076.75
